createdAt,value
2019-01-21T00:00:49.322Z,43.70
2019-01-21T00:01:49.240Z,44.60
2019-01-21T00:02:49.232Z,41.10
2019-01-21T00:03:49.261Z,44.20
2019-01-21T00:04:49.207Z,39.70
2019-01-21T00:05:49.197Z,42.20
2019-01-21T00:06:49.185Z,44.10
2019-01-21T00:07:49.175Z,42.00
2019-01-21T00:08:49.180Z,42.70
2019-01-21T00:09:49.184Z,44.10
2019-01-21T00:10:49.143Z,41.60
2019-01-21T00:11:49.162Z,39.70
2019-01-21T00:12:49.120Z,43.80
2019-01-21T00:13:49.113Z,41.00
2019-01-21T00:14:49.100Z,38.90
2019-01-21T00:15:49.142Z,36.60
2019-01-21T00:16:49.081Z,38.30
2019-01-21T00:17:49.067Z,34.30
2019-01-21T00:18:49.057Z,33.10
2019-01-21T00:19:49.076Z,35.40
2019-01-21T00:20:49.035Z,36.50
2019-01-21T00:21:49.025Z,37.40
2019-01-21T00:22:49.012Z,37.60
2019-01-21T00:23:49.003Z,34.60
2019-01-21T00:24:49.020Z,34.80
2019-01-21T00:25:48.980Z,35.60
2019-01-21T00:26:48.971Z,36.20
2019-01-21T00:27:48.959Z,36.70
2019-01-21T00:28:48.978Z,35.50
2019-01-21T00:29:48.937Z,35.60
2019-01-21T00:30:48.927Z,36.90
2019-01-21T00:31:48.946Z,33.50
2019-01-21T00:32:48.904Z,33.70
2019-01-21T00:33:48.895Z,32.10
2019-01-21T00:34:48.884Z,32.40
2019-01-21T00:35:48.874Z,35.10
2019-01-21T00:36:48.892Z,37.50
2019-01-21T00:37:48.852Z,33.90
2019-01-21T00:38:48.840Z,36.40
2019-01-21T00:39:48.829Z,35.10
2019-01-21T00:40:48.848Z,32.60
2019-01-21T00:41:48.811Z,35.30
2019-01-21T00:42:48.798Z,34.30
2019-01-21T00:43:48.789Z,34.20
2019-01-21T00:44:48.779Z,34.70
2019-01-21T00:45:48.798Z,36.80
2019-01-21T00:46:48.754Z,37.00
2019-01-21T00:47:48.743Z,34.90
2019-01-21T00:48:48.765Z,36.30
2019-01-21T00:49:48.722Z,39.60
2019-01-21T00:50:48.712Z,37.10
2019-01-21T00:51:48.715Z,37.80
2019-01-21T00:52:48.689Z,37.80
2019-01-21T00:53:48.688Z,36.60
2019-01-21T00:54:48.702Z,36.90
2019-01-21T00:55:48.658Z,35.40
2019-01-21T00:56:48.682Z,36.10
2019-01-21T00:57:48.643Z,38.00
2019-01-21T00:58:48.625Z,37.50
2019-01-21T00:59:48.617Z,40.00
2019-01-21T01:00:48.604Z,40.10
2019-01-21T01:01:48.592Z,42.30
2019-01-21T01:02:48.610Z,37.30
2019-01-21T01:03:48.571Z,37.10
2019-01-21T01:04:48.561Z,38.00
2019-01-21T01:05:48.549Z,38.30
2019-01-21T01:06:48.570Z,37.40
2019-01-21T01:07:48.527Z,41.20
2019-01-21T01:08:48.547Z,38.10
2019-01-21T01:09:48.536Z,41.60
2019-01-21T01:10:48.495Z,38.70
2019-01-21T01:11:48.485Z,39.30
2019-01-21T01:12:48.473Z,37.80
2019-01-21T01:13:48.467Z,38.80
2019-01-21T01:14:48.454Z,40.20
2019-01-21T01:15:48.486Z,39.20
2019-01-21T01:16:48.432Z,37.90
2019-01-21T01:17:48.421Z,42.00
2019-01-21T01:18:48.410Z,38.90
2019-01-21T01:19:48.398Z,38.80
2019-01-21T01:20:48.387Z,40.50
2019-01-21T01:21:48.408Z,41.40
2019-01-21T01:22:48.365Z,42.30
2019-01-21T01:23:48.355Z,38.80
2019-01-21T01:24:48.344Z,41.60
2019-01-21T01:25:48.333Z,43.00
2019-01-21T01:26:48.323Z,40.60
2019-01-21T01:27:48.348Z,41.40
2019-01-21T01:28:48.302Z,38.00
2019-01-21T01:29:48.290Z,41.70
2019-01-21T01:30:48.279Z,38.80
2019-01-21T01:31:48.268Z,41.10
2019-01-21T01:32:48.257Z,39.30
2019-01-21T01:33:48.279Z,42.20
2019-01-21T01:34:48.251Z,42.60
2019-01-21T01:35:48.225Z,41.70
2019-01-21T01:36:48.215Z,43.60
2019-01-21T01:37:48.205Z,40.10
2019-01-21T01:38:48.196Z,40.00
2019-01-21T01:39:48.212Z,43.10
2019-01-21T01:40:48.173Z,41.70
2019-01-21T01:41:48.196Z,40.20
2019-01-21T01:42:48.181Z,39.00
2019-01-21T01:43:48.139Z,40.40
2019-01-21T01:44:48.128Z,40.60
2019-01-21T01:45:48.152Z,41.00
2019-01-21T01:46:48.106Z,37.40
2019-01-21T01:47:48.100Z,40.10
2019-01-21T01:48:48.117Z,36.90
2019-01-21T01:49:48.076Z,43.00
2019-01-21T01:50:48.066Z,43.40
2019-01-21T01:51:48.055Z,42.30
2019-01-21T01:52:48.044Z,42.60
2019-01-21T01:53:48.035Z,42.50
2019-01-21T01:54:48.067Z,41.80
2019-01-21T01:55:48.011Z,39.00
2019-01-21T01:56:48.004Z,40.90
2019-01-21T01:57:47.991Z,40.40
2019-01-21T01:58:47.982Z,40.50
2019-01-21T01:59:47.973Z,36.50
2019-01-21T02:00:47.995Z,38.00
2019-01-21T02:01:47.949Z,40.30
2019-01-21T02:02:47.940Z,40.20
2019-01-21T02:03:47.927Z,36.70
2019-01-21T02:04:47.914Z,38.60
2019-01-21T02:05:47.905Z,41.40
2019-01-21T02:06:47.924Z,40.90
2019-01-21T02:07:47.883Z,40.00
2019-01-21T02:08:47.878Z,40.30
2019-01-21T02:09:47.893Z,42.30
2019-01-21T02:10:47.851Z,39.80
2019-01-21T02:11:47.841Z,38.70
2019-01-21T02:12:47.834Z,38.80
2019-01-21T02:13:47.820Z,39.30
2019-01-21T02:14:47.808Z,39.00
2019-01-21T02:15:47.828Z,38.40
2019-01-21T02:16:47.786Z,36.30
2019-01-21T02:17:52.046Z,41.10
2019-01-21T02:18:47.795Z,41.50
2019-01-21T02:19:47.754Z,41.30
2019-01-21T02:20:47.751Z,41.90
2019-01-21T02:21:47.735Z,42.80
2019-01-21T02:22:47.780Z,43.70
2019-01-21T02:23:47.717Z,40.70
2019-01-21T02:24:47.701Z,38.30
2019-01-21T02:25:47.719Z,38.70
2019-01-21T02:26:47.709Z,40.60
2019-01-21T02:27:47.668Z,42.30
2019-01-21T02:28:47.658Z,42.10
2019-01-21T02:29:47.646Z,40.10
2019-01-21T02:30:47.639Z,40.20
2019-01-21T02:31:47.626Z,41.30
2019-01-21T02:32:47.644Z,39.70
2019-01-21T02:33:47.608Z,40.10
2019-01-21T02:34:47.624Z,37.80
2019-01-21T02:35:47.583Z,42.30
2019-01-21T02:36:47.571Z,41.40
2019-01-21T02:37:47.563Z,44.70
2019-01-21T02:38:47.556Z,44.50
2019-01-21T02:39:47.543Z,38.10
2019-01-21T02:40:47.560Z,40.90
2019-01-21T02:41:47.521Z,41.60
2019-01-21T02:42:47.507Z,37.60
2019-01-21T02:43:47.497Z,39.60
2019-01-21T02:44:47.487Z,40.90
2019-01-21T02:45:47.476Z,37.90
2019-01-21T02:46:47.497Z,58.00
2019-01-21T02:47:47.483Z,47.90
2019-01-21T02:48:47.443Z,42.70
2019-01-21T02:49:47.433Z,41.30
2019-01-21T02:50:47.422Z,39.30
2019-01-21T02:51:47.440Z,41.80
2019-01-21T02:52:47.403Z,40.30
2019-01-21T02:53:47.420Z,41.10
2019-01-21T02:54:47.379Z,40.40
2019-01-21T02:55:47.371Z,39.80
2019-01-21T02:56:47.357Z,38.70
2019-01-21T02:57:47.376Z,40.80
2019-01-21T02:58:47.336Z,41.20
2019-01-21T02:59:47.326Z,40.60
2019-01-21T03:00:47.314Z,40.10
2019-01-21T03:01:47.345Z,41.60
2019-01-21T03:02:47.292Z,39.80
2019-01-21T03:03:47.326Z,42.50
2019-01-21T03:04:47.271Z,36.60
2019-01-21T03:05:47.303Z,36.80
2019-01-21T03:06:47.250Z,36.70
2019-01-21T03:07:47.242Z,36.60
2019-01-21T03:08:47.228Z,36.30
2019-01-21T03:09:47.263Z,35.20
2019-01-21T03:10:47.209Z,36.40
2019-01-21T03:11:47.198Z,37.10
2019-01-21T03:12:47.227Z,35.00
2019-01-21T03:13:47.175Z,33.50
2019-01-21T03:14:47.167Z,35.10
2019-01-21T03:15:47.152Z,37.40
2019-01-21T03:16:47.184Z,38.20
2019-01-21T03:17:47.174Z,37.70
2019-01-21T03:18:47.120Z,43.40
2019-01-21T03:19:47.120Z,38.00
2019-01-21T03:20:47.138Z,38.80
2019-01-21T03:21:47.088Z,37.60
2019-01-21T03:22:47.083Z,36.10
2019-01-21T03:23:47.070Z,36.40
2019-01-21T03:24:47.096Z,38.40
2019-01-21T03:25:47.046Z,41.10
2019-01-21T03:26:47.037Z,39.00
2019-01-21T03:27:47.025Z,37.60
2019-01-21T03:28:47.057Z,38.40
2019-01-21T03:29:47.003Z,36.20
2019-01-21T03:30:46.994Z,36.30
2019-01-21T03:31:46.991Z,37.00
2019-01-21T03:32:46.978Z,36.60
2019-01-21T03:33:46.965Z,35.20
2019-01-21T03:34:46.993Z,34.10
2019-01-21T03:35:46.942Z,34.10
2019-01-21T03:36:46.927Z,34.50
2019-01-21T03:37:46.957Z,34.50
2019-01-21T03:38:46.906Z,33.60
2019-01-21T03:39:46.897Z,30.90
2019-01-21T03:40:46.926Z,35.20
2019-01-21T03:41:46.887Z,33.90
2019-01-21T03:42:46.902Z,35.50
2019-01-21T03:43:46.853Z,35.10
2019-01-21T03:44:46.843Z,37.40
2019-01-21T03:45:46.831Z,34.70
2019-01-21T03:46:46.822Z,33.20
2019-01-21T03:47:46.817Z,33.60
2019-01-21T03:48:46.837Z,32.40
2019-01-21T03:49:46.831Z,33.00
2019-01-21T03:50:46.776Z,34.00
2019-01-21T03:51:46.770Z,32.80
2019-01-21T03:52:46.758Z,36.40
2019-01-21T03:53:46.790Z,34.60
2019-01-21T03:54:46.735Z,35.70
2019-01-21T03:55:46.763Z,34.40
2019-01-21T03:56:46.717Z,34.50
2019-01-21T03:57:46.702Z,35.40
2019-01-21T03:58:46.691Z,34.60
2019-01-21T03:59:46.727Z,35.60
2019-01-21T04:00:46.670Z,34.40
2019-01-21T04:01:46.663Z,33.30
2019-01-21T04:02:46.647Z,33.70
2019-01-21T04:03:46.639Z,37.20
2019-01-21T04:04:46.665Z,36.10
2019-01-21T04:05:46.625Z,34.30
2019-01-21T04:06:46.604Z,37.20
2019-01-21T04:07:46.595Z,34.60
2019-01-21T04:08:46.591Z,34.70
2019-01-21T04:09:46.574Z,36.00
2019-01-21T04:10:46.613Z,44.70
2019-01-21T04:11:46.551Z,43.90
2019-01-21T04:12:46.541Z,43.40
2019-01-21T04:13:46.535Z,45.10
2019-01-21T04:14:46.518Z,43.60
2019-01-21T04:15:46.507Z,42.20
2019-01-21T04:16:46.540Z,43.30
2019-01-21T04:17:46.537Z,40.90
2019-01-21T04:18:46.486Z,39.40
2019-01-21T04:19:46.466Z,38.70
2019-01-21T04:20:46.461Z,37.40
2019-01-21T04:21:46.447Z,34.70
2019-01-21T04:22:46.432Z,38.30
2019-01-21T04:23:46.478Z,38.10
2019-01-21T04:24:46.412Z,36.50
2019-01-21T04:25:46.401Z,35.70
2019-01-21T04:26:46.391Z,37.80
2019-01-21T04:27:46.380Z,36.70
2019-01-21T04:28:46.369Z,38.00
2019-01-21T04:29:46.396Z,37.30
2019-01-21T04:30:46.348Z,35.60
2019-01-21T04:31:46.335Z,38.90
2019-01-21T04:32:46.343Z,39.20
2019-01-21T04:33:46.313Z,37.80
2019-01-21T04:34:46.306Z,38.70
2019-01-21T04:35:46.338Z,38.20
2019-01-21T04:36:46.282Z,37.30
2019-01-21T04:37:46.271Z,41.20
2019-01-21T04:38:46.262Z,40.20
2019-01-21T04:39:46.297Z,40.40
2019-01-21T04:40:46.239Z,38.20
2019-01-21T04:41:46.233Z,40.00
2019-01-21T04:42:46.245Z,38.50
2019-01-21T04:43:46.206Z,38.60
2019-01-21T04:44:46.200Z,38.60
2019-01-21T04:45:46.233Z,34.80
2019-01-21T04:46:46.178Z,38.50
2019-01-21T04:47:46.171Z,37.10
2019-01-21T04:48:46.156Z,39.20
2019-01-21T04:49:46.144Z,42.20
2019-01-21T04:50:46.177Z,42.20
2019-01-21T04:51:46.121Z,37.20
2019-01-21T04:52:46.169Z,35.40
2019-01-21T04:53:46.102Z,37.40
2019-01-21T04:54:46.140Z,37.60
2019-01-21T04:55:46.144Z,37.50
2019-01-21T04:56:46.069Z,37.80
2019-01-21T04:57:46.099Z,38.10
2019-01-21T04:58:47.195Z,36.70
2019-01-21T04:59:46.044Z,37.90
2019-01-21T05:00:46.027Z,34.20
2019-01-21T05:01:46.053Z,35.20
2019-01-21T05:02:46.003Z,37.80
2019-01-21T05:03:45.993Z,35.10
2019-01-21T05:04:46.026Z,34.00
2019-01-21T05:05:45.971Z,33.70
2019-01-21T05:06:45.961Z,35.10
2019-01-21T05:07:45.950Z,35.10
2019-01-21T05:08:45.940Z,36.40
2019-01-21T05:09:45.931Z,35.90
2019-01-21T05:10:45.997Z,33.30
2019-01-21T05:11:45.915Z,35.00
2019-01-21T05:12:45.940Z,32.70
2019-01-21T05:13:45.927Z,35.10
2019-01-21T05:14:45.874Z,35.00
2019-01-21T05:15:45.883Z,35.00
2019-01-21T05:16:45.854Z,34.80
2019-01-21T05:17:45.911Z,33.40
2019-01-21T05:18:45.832Z,36.00
2019-01-21T05:19:45.870Z,35.80
2019-01-21T05:20:45.813Z,34.60
2019-01-21T05:21:45.801Z,34.80
2019-01-21T05:22:45.789Z,34.30
2019-01-21T05:23:45.778Z,33.40
2019-01-21T05:24:45.768Z,34.70
2019-01-21T05:25:45.811Z,33.30
2019-01-21T05:26:45.745Z,33.60
2019-01-21T05:27:45.735Z,33.20
2019-01-21T05:28:45.724Z,34.30
2019-01-21T05:29:45.718Z,39.40
2019-01-21T05:30:45.704Z,35.70
2019-01-21T05:31:45.734Z,35.30
2019-01-21T05:32:45.681Z,32.10
2019-01-21T05:33:45.673Z,33.10
2019-01-21T05:34:45.659Z,35.60
2019-01-21T05:35:45.650Z,32.40
2019-01-21T05:36:45.681Z,36.40
2019-01-21T05:37:45.625Z,29.90
2019-01-21T05:38:45.618Z,28.50
2019-01-21T05:39:45.606Z,31.90
2019-01-21T05:40:45.644Z,32.90
2019-01-21T05:41:45.586Z,31.20
2019-01-21T05:42:45.573Z,32.90
2019-01-21T05:43:45.605Z,33.20
2019-01-21T05:44:45.553Z,35.20
2019-01-21T05:45:45.541Z,38.40
2019-01-21T05:46:45.534Z,35.60
2019-01-21T05:47:45.576Z,38.20
2019-01-21T05:48:49.017Z,37.60
2019-01-21T05:49:45.500Z,37.70
2019-01-21T05:50:45.492Z,37.30
2019-01-21T05:51:45.477Z,37.20
2019-01-21T05:52:45.467Z,34.10
2019-01-21T05:53:45.496Z,42.50
2019-01-21T05:54:45.444Z,36.60
2019-01-21T05:55:45.435Z,39.80
2019-01-21T05:56:45.425Z,37.70
2019-01-21T05:57:45.414Z,37.50
2019-01-21T05:58:45.427Z,37.10
2019-01-21T05:59:45.435Z,37.80
2019-01-21T06:00:45.380Z,40.30
2019-01-21T06:01:45.372Z,38.00
2019-01-21T06:02:45.374Z,36.20
2019-01-21T06:03:45.353Z,38.90
2019-01-21T06:04:45.384Z,37.90
2019-01-21T06:05:45.331Z,39.90
2019-01-21T06:06:45.326Z,41.50
2019-01-21T06:07:45.356Z,41.50
2019-01-21T06:08:45.300Z,40.50
2019-01-21T06:09:45.347Z,38.50
2019-01-21T06:10:45.282Z,38.40
2019-01-21T06:11:45.286Z,40.40
2019-01-21T06:12:45.255Z,39.20
2019-01-21T06:13:45.248Z,35.90
2019-01-21T06:14:45.233Z,39.00
2019-01-21T06:15:45.264Z,39.40
2019-01-21T06:16:45.248Z,38.20
2019-01-21T06:17:45.203Z,38.20
2019-01-21T06:18:45.193Z,38.40
2019-01-21T06:19:45.191Z,38.80
2019-01-21T06:20:45.171Z,36.90
2019-01-21T06:21:45.207Z,38.60
2019-01-21T06:22:45.149Z,37.30
2019-01-21T06:23:45.147Z,37.00
2019-01-21T06:24:45.123Z,35.80
2019-01-21T06:25:45.134Z,36.60
2019-01-21T06:26:45.145Z,38.80
2019-01-21T06:27:45.096Z,36.70
2019-01-21T06:28:45.083Z,39.50
2019-01-21T06:29:45.072Z,36.10
2019-01-21T06:30:45.061Z,36.10
2019-01-21T06:31:45.054Z,36.50
2019-01-21T06:32:45.107Z,34.30
2019-01-21T06:33:45.026Z,34.10
2019-01-21T06:34:45.036Z,38.30
2019-01-21T06:35:45.010Z,37.80
2019-01-21T06:36:44.996Z,35.00
2019-01-21T06:37:45.032Z,34.60
2019-01-21T06:38:44.993Z,36.00
2019-01-21T06:39:44.972Z,34.50
2019-01-21T06:40:44.957Z,37.80
2019-01-21T06:41:44.947Z,34.50
2019-01-21T06:42:44.934Z,32.80
2019-01-21T06:43:44.972Z,36.60
2019-01-21T06:44:44.952Z,33.80
2019-01-21T06:45:44.902Z,36.80
2019-01-21T06:46:44.896Z,36.20
2019-01-21T06:47:44.886Z,32.60
2019-01-21T06:48:44.868Z,33.70
2019-01-21T06:49:44.864Z,38.90
2019-01-21T06:50:44.901Z,36.20
2019-01-21T06:51:44.855Z,36.20
2019-01-21T06:52:44.825Z,34.50
2019-01-21T06:53:44.821Z,36.40
2019-01-21T06:54:44.806Z,36.20
2019-01-21T06:55:44.796Z,36.10
2019-01-21T06:56:47.611Z,36.70
2019-01-21T06:57:44.813Z,36.70
2019-01-21T06:58:44.771Z,38.00
2019-01-21T06:59:44.762Z,39.00
2019-01-21T07:00:44.745Z,38.40
2019-01-21T07:01:44.761Z,36.10
2019-01-21T07:02:44.740Z,39.50
2019-01-21T07:03:44.776Z,45.60
2019-01-21T07:04:44.712Z,49.40
2019-01-21T07:05:44.747Z,48.30
2019-01-21T07:06:44.732Z,60.00
2019-01-21T07:07:44.669Z,64.00
2019-01-21T07:08:44.688Z,58.60
2019-01-21T07:09:44.646Z,51.50
2019-01-21T07:10:44.635Z,51.90
2019-01-21T07:11:44.698Z,45.40
2019-01-21T07:12:44.622Z,48.60
2019-01-21T07:13:44.625Z,43.60
2019-01-21T07:14:44.604Z,44.60
2019-01-21T07:15:44.577Z,41.60
2019-01-21T07:16:44.593Z,38.80
2019-01-21T07:17:44.600Z,41.30
2019-01-21T07:18:44.615Z,41.70
2019-01-21T07:19:46.262Z,43.40
2019-01-21T07:20:44.595Z,39.40
2019-01-21T07:21:44.522Z,36.80
2019-01-21T07:22:44.515Z,38.80
2019-01-21T07:23:44.533Z,38.20
2019-01-21T07:24:44.487Z,41.20
2019-01-21T07:25:44.494Z,40.90
2019-01-21T07:26:44.595Z,45.80
2019-01-21T07:27:44.482Z,36.60
2019-01-21T07:28:44.568Z,43.00
2019-01-21T07:29:44.487Z,40.60
2019-01-21T07:30:44.431Z,44.10
2019-01-21T07:31:44.418Z,43.10
2019-01-21T07:32:44.460Z,43.30
2019-01-21T07:33:44.385Z,42.10
2019-01-21T07:34:44.376Z,42.80
2019-01-21T07:35:44.455Z,45.90
2019-01-21T07:36:44.365Z,46.70
2019-01-21T07:37:44.373Z,46.20
2019-01-21T07:38:44.335Z,44.90
2019-01-21T07:39:44.324Z,48.10
2019-01-21T07:40:44.326Z,47.90
2019-01-21T07:41:44.368Z,48.30
2019-01-21T07:42:44.300Z,47.70
2019-01-21T07:43:44.360Z,48.20
2019-01-21T07:44:44.288Z,49.20
2019-01-21T07:45:44.255Z,51.00
2019-01-21T07:46:44.261Z,47.60
2019-01-21T07:47:44.306Z,49.40
2019-01-21T07:48:44.291Z,47.80
2019-01-21T07:49:44.225Z,54.70
2019-01-21T07:50:44.233Z,50.20
2019-01-21T07:51:44.256Z,50.70
2019-01-21T07:52:44.198Z,45.60
2019-01-21T07:53:44.292Z,47.20
2019-01-21T07:54:44.209Z,48.60
2019-01-21T07:55:44.200Z,49.00
2019-01-21T07:56:44.204Z,49.70
2019-01-21T07:57:44.171Z,46.90
2019-01-21T07:58:44.125Z,46.60
2019-01-21T07:59:44.212Z,49.70
2019-01-21T08:00:44.103Z,48.60
2019-01-21T08:01:44.129Z,50.10
2019-01-21T08:02:44.076Z,49.00
2019-01-21T08:03:44.065Z,49.40
2019-01-21T08:04:44.060Z,48.00
2019-01-21T08:05:44.191Z,43.30
2019-01-21T08:06:45.334Z,48.70
2019-01-21T08:07:44.055Z,46.40
2019-01-21T08:08:44.015Z,47.70
2019-01-21T08:09:43.997Z,46.10
2019-01-21T08:10:43.987Z,46.60
2019-01-21T08:11:44.023Z,45.10
2019-01-21T08:12:43.986Z,46.10
2019-01-21T08:13:43.989Z,44.60
2019-01-21T08:14:43.951Z,45.30
2019-01-21T08:15:43.938Z,47.70
2019-01-21T08:16:43.969Z,49.30
2019-01-21T08:17:43.925Z,45.90
2019-01-21T08:18:43.963Z,44.90
2019-01-21T08:19:43.900Z,42.80
2019-01-21T08:20:43.880Z,43.00
2019-01-21T08:21:43.874Z,42.00
2019-01-21T08:22:43.862Z,39.80
2019-01-21T08:23:43.865Z,40.70
2019-01-21T08:24:43.915Z,41.80
2019-01-21T08:25:43.882Z,42.80
2019-01-21T08:26:43.823Z,42.70
2019-01-21T08:27:43.868Z,39.10
2019-01-21T08:28:43.803Z,43.30
2019-01-21T08:29:43.802Z,45.00
2019-01-21T08:30:43.818Z,40.60
2019-01-21T08:31:43.770Z,40.90
2019-01-21T08:32:43.758Z,47.60
2019-01-21T08:33:43.745Z,44.50
2019-01-21T08:34:43.734Z,44.70
2019-01-21T08:35:43.765Z,44.90
2019-01-21T08:36:43.710Z,45.60
2019-01-21T08:37:43.716Z,46.30
2019-01-21T08:38:43.704Z,47.50
2019-01-21T08:39:43.678Z,46.70
2019-01-21T08:40:43.671Z,45.70
2019-01-21T08:41:44.868Z,41.50
2019-01-21T08:42:43.654Z,41.60
2019-01-21T08:43:43.636Z,42.20
2019-01-21T08:44:43.650Z,44.90
2019-01-21T08:45:43.618Z,41.40
2019-01-21T08:46:43.600Z,42.50
2019-01-21T08:47:43.633Z,42.20
2019-01-21T08:48:43.663Z,41.40
2019-01-21T08:49:43.580Z,38.60
2019-01-21T08:50:43.593Z,39.60
2019-01-21T08:51:43.581Z,39.50
2019-01-21T08:52:43.541Z,44.30
2019-01-21T08:53:43.552Z,40.60
2019-01-21T08:54:43.560Z,38.30
2019-01-21T08:55:43.523Z,43.00
2019-01-21T08:56:43.531Z,40.90
2019-01-21T08:57:43.505Z,40.30
2019-01-21T08:58:43.485Z,40.30
2019-01-21T08:59:43.462Z,40.60
2019-01-21T09:00:43.549Z,40.20
2019-01-21T09:01:43.443Z,40.90
2019-01-21T09:02:43.447Z,40.20
2019-01-21T09:03:43.430Z,37.30
2019-01-21T09:04:43.455Z,37.00
2019-01-21T09:05:43.453Z,40.40
2019-01-21T09:06:43.425Z,38.50
2019-01-21T09:07:43.398Z,37.00
2019-01-21T09:08:43.371Z,41.90
2019-01-21T09:09:43.361Z,40.90
2019-01-21T09:10:43.431Z,41.60
2019-01-21T09:11:43.332Z,41.70
2019-01-21T09:12:43.349Z,39.40
2019-01-21T09:13:43.359Z,40.20
2019-01-21T09:14:43.307Z,42.30
2019-01-21T09:15:43.293Z,42.40
2019-01-21T09:16:43.298Z,41.30
2019-01-21T09:17:43.328Z,41.20
2019-01-21T09:18:43.269Z,43.10
2019-01-21T09:19:43.294Z,42.60
2019-01-21T09:20:43.251Z,41.10
2019-01-21T09:21:43.277Z,47.10
2019-01-21T09:22:43.224Z,44.80
2019-01-21T09:23:43.220Z,41.30
2019-01-21T09:24:43.229Z,44.60
2019-01-21T09:25:43.191Z,41.80
2019-01-21T09:26:43.186Z,44.60
2019-01-21T09:27:43.205Z,44.80
2019-01-21T09:28:43.151Z,45.30
2019-01-21T09:29:43.159Z,45.40
2019-01-21T09:30:43.135Z,46.70
2019-01-21T09:31:43.124Z,45.00
2019-01-21T09:32:43.119Z,41.00
2019-01-21T09:33:43.154Z,46.60
2019-01-21T09:34:43.114Z,46.00
2019-01-21T09:35:43.078Z,44.30
2019-01-21T09:36:43.095Z,47.20
2019-01-21T09:37:43.084Z,46.80
2019-01-21T09:38:43.051Z,45.10
2019-01-21T09:39:43.285Z,46.00
2019-01-21T09:40:43.027Z,47.50
2019-01-21T09:41:43.557Z,46.40
2019-01-21T09:42:43.052Z,44.30
2019-01-21T09:43:42.989Z,48.30
2019-01-21T09:44:42.977Z,47.40
2019-01-21T09:45:42.982Z,47.30
2019-01-21T09:46:42.973Z,45.40
2019-01-21T09:47:42.945Z,49.20
2019-01-21T09:48:42.986Z,45.70
2019-01-21T09:49:43.793Z,46.70
2019-01-21T09:50:42.921Z,47.10
2019-01-21T09:51:42.900Z,42.90
2019-01-21T09:52:43.066Z,44.80
2019-01-21T09:53:42.888Z,48.00
2019-01-21T09:54:42.939Z,46.60
2019-01-21T09:55:42.879Z,45.30
2019-01-21T09:56:42.854Z,45.60
2019-01-21T09:57:42.903Z,45.70
2019-01-21T09:58:42.898Z,46.20
2019-01-21T09:59:42.822Z,44.70
2019-01-21T10:00:42.833Z,44.30
2019-01-21T10:01:42.791Z,44.60
2019-01-21T10:02:42.872Z,45.30
2019-01-21T10:03:42.847Z,44.40
2019-01-21T10:04:42.820Z,44.60
2019-01-21T10:05:42.788Z,44.20
2019-01-21T10:06:42.804Z,44.00
2019-01-21T10:07:42.726Z,43.60
2019-01-21T10:08:42.763Z,44.90
2019-01-21T10:09:42.718Z,44.80
2019-01-21T10:10:42.700Z,45.80
2019-01-21T10:11:42.731Z,47.70
2019-01-21T10:12:42.674Z,42.10
2019-01-21T10:13:42.663Z,43.80
2019-01-21T10:14:42.759Z,43.70
2019-01-21T10:15:42.636Z,47.30
2019-01-21T10:16:42.671Z,43.70
2019-01-21T10:17:43.131Z,43.40
2019-01-21T10:18:42.649Z,42.20
2019-01-21T10:19:42.619Z,42.10
2019-01-21T10:20:42.598Z,43.40
2019-01-21T10:21:42.647Z,43.90
2019-01-21T10:22:42.606Z,44.60
2019-01-21T10:23:42.552Z,42.60
2019-01-21T10:24:42.621Z,45.10
2019-01-21T10:25:42.530Z,43.80
2019-01-21T10:26:42.599Z,48.00
2019-01-21T10:27:42.732Z,43.10
2019-01-21T10:28:42.543Z,41.00
2019-01-21T10:29:43.140Z,43.20
2019-01-21T10:30:42.480Z,42.20
2019-01-21T10:31:42.471Z,44.60
2019-01-21T10:32:43.225Z,43.00
2019-01-21T10:33:42.442Z,42.30
2019-01-21T10:34:42.690Z,39.50
2019-01-21T10:35:42.484Z,42.30
2019-01-21T10:36:42.472Z,43.00
2019-01-21T10:37:42.400Z,40.80
2019-01-21T10:38:42.413Z,40.90
2019-01-21T10:39:42.379Z,41.80
2019-01-21T10:40:42.376Z,44.00
2019-01-21T10:41:42.682Z,40.20
2019-01-21T10:42:42.359Z,41.10
2019-01-21T10:43:42.341Z,40.00
2019-01-21T10:44:42.349Z,39.50
2019-01-21T10:45:43.154Z,38.60
2019-01-21T10:46:42.404Z,39.40
2019-01-21T10:47:42.315Z,37.20
2019-01-21T10:48:42.286Z,42.80
2019-01-21T10:49:42.297Z,41.20
2019-01-21T10:50:42.278Z,40.90
2019-01-21T10:51:42.248Z,36.80
2019-01-21T10:52:42.326Z,35.10
2019-01-21T10:53:42.245Z,37.50
2019-01-21T10:54:42.260Z,37.20
2019-01-21T10:55:42.221Z,36.70
2019-01-21T10:56:42.220Z,39.70
2019-01-21T10:57:42.193Z,40.90
2019-01-21T10:58:42.312Z,36.00
2019-01-21T10:59:42.204Z,36.20
2019-01-21T11:00:42.163Z,36.60
2019-01-21T11:01:42.189Z,35.40
2019-01-21T11:02:42.273Z,37.00
2019-01-21T11:03:42.212Z,35.90
2019-01-21T11:04:42.114Z,35.90
2019-01-21T11:05:42.097Z,36.10
2019-01-21T11:06:42.093Z,37.90
2019-01-21T11:07:42.082Z,37.10
2019-01-21T11:08:42.069Z,35.80
2019-01-21T11:09:42.092Z,39.70
2019-01-21T11:10:42.063Z,36.50
2019-01-21T11:11:42.040Z,35.90
2019-01-21T11:12:42.045Z,37.60
2019-01-21T11:13:42.015Z,37.40
2019-01-21T11:14:42.004Z,36.10
2019-01-21T11:15:42.032Z,37.60
2019-01-21T11:16:41.995Z,37.30
2019-01-21T11:17:41.964Z,35.80
2019-01-21T11:18:42.352Z,33.20
2019-01-21T11:19:44.133Z,35.50
2019-01-21T11:20:45.279Z,36.40
2019-01-21T11:21:42.905Z,34.00
2019-01-21T11:22:42.746Z,34.10
2019-01-21T11:23:42.068Z,35.10
2019-01-21T11:24:41.913Z,35.80
2019-01-21T11:25:41.892Z,34.60
2019-01-21T11:26:41.884Z,36.00
2019-01-21T11:27:41.919Z,32.70
2019-01-21T11:28:42.552Z,32.90
2019-01-21T11:29:41.881Z,35.60
2019-01-21T11:30:41.835Z,34.60
2019-01-21T11:31:41.907Z,33.10
2019-01-21T11:32:41.818Z,34.10
2019-01-21T11:33:41.844Z,33.50
2019-01-21T11:34:41.887Z,33.40
2019-01-21T11:35:41.815Z,34.00
2019-01-21T11:36:41.756Z,36.50
2019-01-21T11:37:41.885Z,32.30
2019-01-21T11:38:41.744Z,34.90
2019-01-21T11:39:41.723Z,32.70
2019-01-21T11:40:42.204Z,34.90
2019-01-21T11:41:41.706Z,33.90
2019-01-21T11:42:41.692Z,33.90
2019-01-21T11:43:41.686Z,33.70
2019-01-21T11:44:41.794Z,34.00
2019-01-21T11:45:41.662Z,35.10
2019-01-21T11:46:41.677Z,34.10
2019-01-21T11:47:42.619Z,32.20
2019-01-21T11:48:43.165Z,31.90
2019-01-21T11:49:41.643Z,34.20
2019-01-21T11:50:41.722Z,34.40
2019-01-21T11:51:41.636Z,34.10
2019-01-21T11:52:41.589Z,35.00
2019-01-21T11:53:41.626Z,36.70
2019-01-21T11:54:41.577Z,34.60
2019-01-21T11:55:41.598Z,32.80
2019-01-21T11:56:41.567Z,33.20
2019-01-21T11:57:41.552Z,34.10
2019-01-21T11:58:41.524Z,37.30
2019-01-21T11:59:41.557Z,31.70
2019-01-21T12:00:41.578Z,32.20
2019-01-21T12:01:41.530Z,33.90
2019-01-21T12:02:41.481Z,33.90
2019-01-21T12:03:42.160Z,32.30
2019-01-21T12:04:41.454Z,32.60
2019-01-21T12:05:41.460Z,33.00
2019-01-21T12:06:41.480Z,32.00
2019-01-21T12:07:41.488Z,32.60
2019-01-21T12:08:41.414Z,33.50
2019-01-21T12:09:41.403Z,32.60
2019-01-21T12:10:41.392Z,31.90
2019-01-21T12:11:41.378Z,34.90
2019-01-21T12:12:41.372Z,34.60
2019-01-21T12:13:41.435Z,34.10
2019-01-21T12:14:41.355Z,32.90
2019-01-21T12:15:41.349Z,34.90
2019-01-21T12:16:41.378Z,34.50
2019-01-21T12:17:41.312Z,36.00
2019-01-21T12:18:41.317Z,34.20
2019-01-21T12:19:41.302Z,32.60
2019-01-21T12:20:41.368Z,34.10
2019-01-21T12:21:41.347Z,34.40
2019-01-21T12:22:41.559Z,34.80
2019-01-21T12:23:41.307Z,33.60
2019-01-21T12:24:41.249Z,34.30
2019-01-21T12:25:41.260Z,33.80
2019-01-21T12:26:41.223Z,33.30
2019-01-21T12:27:41.289Z,34.70
2019-01-21T12:28:41.245Z,33.90
2019-01-21T12:29:41.237Z,34.60
2019-01-21T12:30:41.173Z,32.40
2019-01-21T12:31:41.185Z,33.10
2019-01-21T12:32:41.150Z,33.80
2019-01-21T12:33:41.177Z,35.40
2019-01-21T12:34:41.172Z,35.40
2019-01-21T12:35:41.157Z,33.30
2019-01-21T12:36:41.110Z,33.20
2019-01-21T12:37:41.143Z,34.70
2019-01-21T12:38:41.089Z,33.50
2019-01-21T12:39:41.090Z,36.00
2019-01-21T12:40:41.061Z,32.20
2019-01-21T12:41:41.320Z,35.40
2019-01-21T12:42:41.102Z,34.20
2019-01-21T12:43:41.041Z,35.80
2019-01-21T12:44:41.020Z,33.90
2019-01-21T12:45:41.010Z,34.50
2019-01-21T12:46:41.011Z,35.80
2019-01-21T12:47:40.990Z,37.40
2019-01-21T12:48:41.019Z,32.40
2019-01-21T12:49:40.965Z,32.40
2019-01-21T12:50:40.952Z,35.90
2019-01-21T12:51:40.944Z,33.20
2019-01-21T12:52:40.940Z,35.50